Time;durP1;ratioP1;P1;durP2;ratioP2;P2;SDS_P1;SDS_P2;PMS_P1;PMS_P2;Temp;Humidity;BMP_temperature;BMP_pressure;BME280_temperature;BME280_humidity;BME280_pressure;Samples;Min_cycle;Max_cycle;Signal;HPM_P1;HPM_P2
2022/11/13 00:00:05;;;;;;;36.88;24.65;;;;;;;3.26;100.00;102461.22;10342258;28;20038;-80
2022/11/13 00:05:06;;;;;;;55.50;32.60;;;;;;;3.20;100.00;102456.31;10341775;28;20475;-81
2022/11/13 00:10:07;;;;;;;42.25;30.80;;;;;;;3.22;100.00;102453.88;10350246;28;20041;-80
2022/11/13 00:15:08;;;;;;;52.83;31.90;;;;;;;3.24;100.00;102452.38;10358451;28;20426;-81
2022/11/13 00:20:09;;;;;;;55.03;34.60;;;;;;;3.28;100.00;102453.59;10361369;28;20057;-82
2022/11/13 00:25:09;;;;;;;46.72;32.35;;;;;;;3.19;100.00;102458.75;10349257;28;20054;-81
2022/11/13 00:30:10;;;;;;;43.80;30.45;;;;;;;3.10;100.00;102450.03;10344246;28;20033;-81
2022/11/13 00:35:11;;;;;;;74.82;38.83;;;;;;;2.99;100.00;102436.91;10359497;28;20041;-82
2022/11/13 00:40:11;;;;;;;57.45;34.20;;;;;;;2.94;100.00;102433.81;10356529;28;20038;-81
2022/11/13 00:45:13;;;;;;;44.78;27.15;;;;;;;2.94;100.00;102430.34;10363036;28;20077;-82
2022/11/13 00:50:13;;;;;;;46.33;29.88;;;;;;;3.05;100.00;102419.44;10361461;28;20038;-82
2022/11/13 00:55:14;;;;;;;46.03;30.50;;;;;;;3.12;100.00;102410.63;10361359;28;20050;-81
2022/11/13 01:00:14;;;;;;;49.13;30.55;;;;;;;3.00;100.00;102417.09;10363020;28;20787;-81
2022/11/13 01:05:15;;;;;;;38.92;27.77;;;;;;;2.94;100.00;102412.22;10361100;28;20041;-81
2022/11/13 01:10:16;;;;;;;48.17;28.40;;;;;;;2.92;100.00;102406.00;10360584;28;20053;-81
2022/11/13 01:15:16;;;;;;;37.70;23.85;;;;;;;2.91;100.00;102396.41;10360517;28;20042;-81
2022/11/13 01:20:17;;;;;;;46.25;28.83;;;;;;;2.93;100.00;102389.72;10360968;28;20038;-81
2022/11/13 01:25:17;;;;;;;29.23;23.38;;;;;;;2.69;100.00;102385.50;10358237;28;20088;-81
2022/11/13 01:30:18;;;;;;;36.47;25.05;;;;;;;2.41;100.00;102377.44;10343229;28;20046;-81
2022/11/13 01:35:19;;;;;;;39.60;26.38;;;;;;;2.45;100.00;102377.94;10359110;28;20042;-80
2022/11/13 01:40:19;;;;;;;38.30;25.48;;;;;;;2.35;100.00;102378.63;10359298;28;20137;-82
2022/11/13 01:45:56;;;;;;;39.40;24.67;;;;;;;2.26;100.00;102372.50;10359931;28;20042;-82
2022/11/13 01:50:57;;;;;;;36.03;25.40;;;;;;;2.23;100.00;102377.34;10359231;28;20077;-81
2022/11/13 01:55:58;;;;;;;38.13;25.08;;;;;;;2.12;100.00;102376.22;10361115;28;20033;-82
2022/11/13 02:00:58;;;;;;;42.92;25.75;;;;;;;2.10;100.00;102379.38;10342374;28;20034;-81
2022/11/13 02:05:59;;;;;;;45.85;31.50;;;;;;;2.20;100.00;102369.25;10357689;28;20493;-80
2022/11/13 02:10:59;;;;;;;47.75;35.33;;;;;;;2.13;100.00;102362.56;10357072;28;20044;-81
2022/11/13 02:16:00;;;;;;;34.67;26.40;;;;;;;2.17;100.00;102356.03;10357984;28;20042;-81
2022/11/13 02:21:03;;;;;;;34.42;24.13;;;;;;;2.18;100.00;102353.63;10333602;28;20436;-80
2022/11/13 02:26:04;;;;;;;43.88;26.65;;;;;;;2.23;100.00;102345.44;10358497;28;20049;-81
2022/11/13 02:31:08;;;;;;;44.30;28.52;;;;;;;2.20;100.00;102346.00;10325565;28;20148;-81
2022/11/13 02:36:09;;;;;;;40.90;29.10;;;;;;;2.16;100.00;102347.38;10355574;28;20042;-80
2022/11/13 02:41:10;;;;;;;36.70;27.67;;;;;;;2.13;100.00;102349.63;10322138;28;20517;-79
2022/11/13 02:46:10;;;;;;;37.63;25.48;;;;;;;2.08;100.00;102350.81;10358612;28;20112;-80
2022/11/13 02:51:11;;;;;;;42.53;30.67;;;;;;;2.14;100.00;102340.19;10358133;28;20042;-81
2022/11/13 02:56:11;;;;;;;45.53;28.48;;;;;;;2.05;100.00;102350.50;10357315;28;20073;-81
2022/11/13 03:01:12;;;;;;;44.00;29.42;;;;;;;1.94;100.00;102344.16;10337894;28;20052;-82
2022/11/13 03:06:12;;;;;;;43.97;27.20;;;;;;;1.87;100.00;102336.53;10340646;28;20505;-81
2022/11/13 03:11:13;;;;;;;31.83;23.00;;;;;;;1.88;100.00;102335.78;10339354;28;20042;-82
2022/11/13 03:16:14;;;;;;;30.55;22.40;;;;;;;1.93;100.00;102334.59;10356944;28;20126;-80
2022/11/13 03:21:15;;;;;;;;;;;;;;;2.05;100.00;102315.22;10349200;28;20049;-81
2022/11/13 03:26:16;;;;;;;31.60;24.17;;;;;;;1.88;100.00;102309.94;10365200;28;19922;-80
2022/11/13 03:31:17;;;;;;;31.98;22.67;;;;;;;1.59;100.00;102311.28;10363890;28;20054;-82
2022/11/13 03:36:17;;;;;;;31.17;23.02;;;;;;;1.34;100.00;102314.56;10362025;28;20509;-81
2022/11/13 03:41:18;;;;;;;25.33;20.42;;;;;;;1.17;100.00;102313.63;10362877;28;20129;-83
2022/11/13 03:46:18;;;;;;;26.08;17.25;;;;;;;1.07;100.00;102309.13;10347107;28;20042;-82
2022/11/13 03:51:19;;;;;;;31.10;21.27;;;;;;;1.01;100.00;102316.19;10363588;28;20508;-80
2022/11/13 03:56:19;;;;;;;37.00;21.17;;;;;;;0.93;100.00;102315.38;10365185;28;20042;-80
2022/11/13 04:01:20;;;;;;;69.88;22.95;;;;;;;0.94;100.00;102303.38;10361197;28;20042;-80
2022/11/13 04:06:20;;;;;;;31.23;22.55;;;;;;;0.93;100.00;102302.47;10349266;28;20049;-80
2022/11/13 04:11:21;;;;;;;32.08;20.92;;;;;;;1.07;100.00;102303.97;10364513;28;20041;-80
2022/11/13 04:16:21;;;;;;;32.47;22.15;;;;;;;1.16;100.00;102302.41;10364312;28;20065;-80
2022/11/13 04:21:22;;;;;;;34.22;24.45;;;;;;;1.21;100.00;102299.41;10362288;28;20128;-80
2022/11/13 04:26:22;;;;;;;33.58;22.70;;;;;;;1.17;100.00;102291.31;10358469;28;20076;-82
2022/11/13 04:31:23;;;;;;;39.38;23.33;;;;;;;1.21;100.00;102279.69;10359922;28;20042;-88
2022/11/13 04:36:24;;;;;;;43.72;26.88;;;;;;;1.67;100.00;102272.47;10361595;28;20121;-84
2022/11/13 04:46:43;;;;;;;35.58;23.77;;;;;;;1.40;100.00;102276.50;10347100;28;20050;-84
2022/11/13 04:51:44;;;;;;;26.92;20.70;;;;;;;1.00;100.00;102266.31;10344302;28;20050;-80
2022/11/13 04:56:44;;;;;;;32.47;23.85;;;;;;;0.75;100.00;102254.06;10358891;28;20120;-81
2022/11/13 05:01:45;;;;;;;33.00;22.27;;;;;;;0.58;100.00;102256.59;10359666;28;20104;-80
2022/11/13 05:06:45;;;;;;;30.95;22.08;;;;;;;0.60;100.00;102241.34;10344866;28;20095;-81
2022/11/13 05:11:46;;;;;;;31.83;21.75;;;;;;;0.62;100.00;102246.63;10328096;28;20038;-78
2022/11/13 05:16:48;;;;;;;34.15;21.30;;;;;;;0.61;100.00;102244.81;10359532;28;20038;-81
2022/11/13 05:21:49;;;;;;;33.35;23.63;;;;;;;0.59;100.00;102239.50;10340773;28;20526;-82
2022/11/13 05:26:49;;;;;;;41.83;24.95;;;;;;;0.57;100.00;102238.41;10360448;28;20137;-82
2022/11/13 05:31:50;;;;;;;35.40;23.27;;;;;;;0.45;100.00;102230.25;10338523;28;21848;-82
2022/11/13 05:36:51;;;;;;;31.52;20.90;;;;;;;0.27;100.00;102226.56;10340776;28;20069;-81
2022/11/13 05:41:51;;;;;;;28.08;21.00;;;;;;;0.18;100.00;102216.13;10358221;28;20120;-80
2022/11/13 05:46:52;;;;;;;30.73;20.45;;;;;;;0.16;100.00;102212.47;10356561;28;20052;-79
2022/11/13 05:51:53;;;;;;;30.58;21.35;;;;;;;0.24;100.00;102203.94;10358586;28;20046;-81
2022/11/13 05:56:53;;;;;;;29.63;21.50;;;;;;;0.30;100.00;102203.72;10341909;28;20044;-83
2022/11/13 06:01:54;;;;;;;31.75;22.70;;;;;;;0.24;100.00;102191.06;10342202;28;20128;-81
2022/11/13 06:06:54;;;;;;;33.95;23.25;;;;;;;0.29;100.00;102181.28;10358796;28;20034;-82
2022/11/13 06:11:55;;;;;;;37.97;25.80;;;;;;;0.38;100.00;102176.22;10357994;28;20034;-82
2022/11/13 06:16:55;;;;;;;25.98;19.88;;;;;;;0.41;100.00;102173.97;10341269;28;20050;-80
2022/11/13 06:21:56;;;;;;;32.30;21.55;;;;;;;0.73;100.00;102167.19;10356010;28;20052;-82
2022/11/13 06:26:56;;;;;;;23.27;18.95;;;;;;;1.02;100.00;102169.41;10354651;28;20073;-82
2022/11/13 06:31:57;;;;;;;29.42;19.75;;;;;;;1.28;100.00;102160.03;10356243;28;20486;-82
2022/11/13 06:36:58;;;;;;;25.17;19.90;;;;;;;1.69;100.00;102152.22;10358513;28;20065;-82
2022/11/13 06:41:58;;;;;;;30.33;21.02;;;;;;;2.12;100.00;102138.59;10355763;28;20041;-82
2022/11/13 06:46:59;;;;;;;26.48;18.38;;;;;;;2.56;100.00;102140.34;10355142;28;20042;-82
2022/11/13 06:51:59;;;;;;;30.08;17.15;;;;;;;2.72;100.00;102148.88;10360413;28;20049;-81
2022/11/13 06:57:00;;;;;;;23.95;15.10;;;;;;;2.90;100.00;102142.03;10365374;28;20486;-83
2022/11/13 07:02:00;;;;;;;25.20;17.17;;;;;;;3.15;100.00;102146.13;10343410;28;20049;-85
2022/11/13 07:07:01;;;;;;;24.73;15.75;;;;;;;3.27;100.00;102152.50;10365473;28;20486;-83
2022/11/13 07:12:02;;;;;;;21.98;15.77;;;;;;;3.19;100.00;102156.91;10363830;28;20037;-84
2022/11/13 07:17:03;;;;;;;22.50;13.63;;;;;;;3.28;100.00;102162.09;10365059;28;20482;-86
2022/11/13 07:22:03;;;;;;;24.95;13.45;;;;;;;3.26;100.00;102158.44;10362824;28;20129;-85
2022/11/13 07:27:04;;;;;;;33.80;28.58;;;;;;;3.08;100.00;102154.94;10365214;28;20076;-84
2022/11/13 07:32:04;;;;;;;17.25;12.15;;;;;;;3.00;100.00;102148.09;10358680;28;20041;-81
2022/11/13 07:37:07;;;;;;;22.27;12.57;;;;;;;3.16;100.00;102154.03;10346930;28;20045;-82
2022/11/13 07:42:08;;;;;;;14.88;10.48;;;;;;;3.13;100.00;102145.97;10347286;28;20074;-82
2022/11/13 07:47:08;;;;;;;17.70;10.93;;;;;;;3.15;100.00;102140.94;10364094;28;20461;-82
2022/11/13 07:52:09;;;;;;;16.48;11.70;;;;;;;3.26;100.00;102135.16;10363534;28;20056;-81
2022/11/13 07:57:10;;;;;;;15.68;12.38;;;;;;;3.32;100.00;102137.41;10363737;28;20049;-80
2022/11/13 08:02:14;;;;;;;18.10;12.43;;;;;;;3.40;100.00;102133.00;10347547;28;20046;-83
2022/11/13 08:07:15;;;;;;;17.38;10.77;;;;;;;3.52;100.00;102127.31;10345913;28;20155;-80
2022/11/13 08:12:15;;;;;;;14.02;10.32;;;;;;;3.66;100.00;102128.66;10345479;28;20125;-82
2022/11/13 08:17:16;;;;;;;15.43;11.02;;;;;;;3.62;100.00;102131.72;10362486;28;20061;-82
2022/11/13 08:22:16;;;;;;;14.52;8.50;;;;;;;3.67;100.00;102124.38;10360379;28;20046;-82
2022/11/13 08:27:17;;;;;;;15.05;8.48;;;;;;;3.69;100.00;102127.13;10360724;28;20046;-82
2022/11/13 08:32:17;;;;;;;15.50;10.38;;;;;;;3.67;100.00;102119.19;10361966;28;20413;-81
2022/11/13 08:37:18;;;;;;;22.67;9.07;;;;;;;3.87;100.00;102115.00;10358608;28;20141;-80
2022/11/13 08:42:19;;;;;;;14.13;7.88;;;;;;;4.13;100.00;102112.28;10353240;28;20157;-81
2022/11/13 08:47:19;;;;;;;12.93;7.47;;;;;;;4.40;100.00;102110.44;10359645;28;20038;-83
2022/11/13 08:52:20;;;;;;;12.95;8.68;;;;;;;4.76;100.00;102106.81;10359514;28;20099;-83
2022/11/13 08:57:20;;;;;;;15.90;8.02;;;;;;;5.07;100.00;102094.00;10340899;28;20034;-84
2022/11/13 09:02:21;;;;;;;9.35;6.70;;;;;;;5.40;100.00;102087.41;10356460;28;20041;-81
2022/11/13 09:07:21;;;;;;;10.25;6.32;;;;;;;5.70;100.00;102089.94;10358749;28;20046;-83
2022/11/13 09:12:22;;;;;;;10.50;5.50;;;;;;;6.02;100.00;102076.25;10357616;28;20046;-83
2022/11/13 09:17:22;;;;;;;7.70;4.95;;;;;;;6.39;100.00;102068.06;10357937;28;20409;-83
2022/11/13 09:22:23;;;;;;;8.07;4.57;;;;;;;6.67;100.00;102067.75;10341143;28;20498;-83
2022/11/13 09:27:23;;;;;;;7.47;3.80;;;;;;;6.95;100.00;102072.63;10359994;28;20044;-82
2022/11/13 09:32:24;;;;;;;8.93;4.53;;;;;;;7.42;100.00;102072.97;10358607;28;20405;-84
2022/11/13 09:37:24;;;;;;;6.60;3.85;;;;;;;8.62;100.00;102056.03;10343242;28;20517;-84
2022/11/13 09:42:25;;;;;;;5.25;2.95;;;;;;;13.20;84.71;102038.44;10356641;28;20572;-83
2022/11/13 09:47:32;;;;;;;5.75;2.35;;;;;;;17.61;60.20;102021.84;10326526;28;20045;-83
2022/11/13 09:52:38;;;;;;;5.90;3.42;;;;;;;19.78;48.13;102020.94;10355300;28;20038;-82
2022/11/13 09:57:50;;;;;;;4.70;3.15;;;;;;;20.96;43.43;102010.66;10340671;28;20049;-82
2022/11/13 10:03:23;;;;;;;5.50;2.37;;;;;;;22.00;36.00;102010.13;10358514;28;20041;-82
2022/11/13 10:08:27;;;;;;;5.10;2.47;;;;;;;22.18;40.11;102010.44;10340838;28;20490;-82
2022/11/13 10:13:38;;;;;;;5.05;2.53;;;;;;;23.27;37.82;102005.03;10358508;28;20037;-82
2022/11/13 10:18:39;;;;;;;3.23;2.03;;;;;;;23.06;35.60;102013.63;10355085;28;20042;-81
2022/11/13 10:23:39;;;;;;;2.90;1.70;;;;;;;23.22;31.07;102009.38;10340843;28;20194;-81
2022/11/13 10:28:40;;;;;;;3.08;1.60;;;;;;;23.63;36.16;101997.47;10341263;28;20026;-81
2022/11/13 10:33:41;;;;;;;7.82;1.83;;;;;;;24.18;31.44;102000.72;10339163;28;20507;-81
2022/11/13 10:39:04;;;;;;;2.40;1.50;;;;;;;24.43;29.65;101992.91;10356679;28;20081;-81
2022/11/13 10:44:16;;;;;;;3.90;2.13;;;;;;;24.70;28.10;101991.31;10357339;28;20156;-85
2022/11/13 10:49:21;;;;;;;5.30;2.28;;;;;;;22.21;37.27;101998.03;10339319;28;20052;-80
2022/11/13 10:54:27;;;;;;;5.13;1.63;;;;;;;20.11;35.63;101992.59;10350843;28;20049;-80
2022/11/13 10:59:40;;;;;;;11.43;1.73;;;;;;;19.39;34.62;101992.38;10354363;28;20498;-80
2022/11/13 11:04:41;;;;;;;3.40;1.67;;;;;;;18.77;36.86;101982.53;10355419;28;20050;-81
2022/11/13 11:09:47;;;;;;;5.57;2.00;;;;;;;18.99;39.61;101976.16;10354498;28;20116;-80
2022/11/13 11:15:00;;;;;;;4.38;1.40;;;;;;;19.51;42.11;101970.56;10337916;28;20042;-80
2022/11/13 11:20:06;;;;;;;4.50;1.65;;;;;;;19.18;41.75;101956.41;10353745;28;20096;-79
2022/11/13 11:25:17;;;;;;;1.98;1.20;;;;;;;18.60;40.48;101955.47;10335941;28;20096;-80
2022/11/13 11:30:20;;;;;;;3.40;1.58;;;;;;;18.05;46.08;101950.13;10323133;28;20037;-80
2022/11/13 11:35:24;;;;;;;2.55;1.25;;;;;;;19.58;38.36;101946.00;10357047;28;20049;-80
2022/11/13 11:40:45;;;;;;;8.70;3.22;;;;;;;20.36;34.69;101938.31;10358023;28;20397;-80
2022/11/13 11:45:46;;;;;;;1.85;1.10;;;;;;;20.27;34.86;101940.75;10345686;28;20038;-81
2022/11/13 11:50:50;;;;;;;3.38;1.52;;;;;;;20.09;35.08;101930.53;10362241;28;20053;-80
2022/11/13 11:56:06;;;;;;;3.55;1.58;;;;;;;19.98;36.84;101926.69;10345070;28;20042;-78
2022/11/13 12:01:16;;;;;;;3.55;1.83;;;;;;;19.50;37.66;101921.91;10358848;28;20042;-79
2022/11/13 12:06:20;;;;;;;30.48;16.70;;;;;;;20.24;38.32;101911.44;10359802;28;20038;-78
2022/11/13 12:11:31;;;;;;;3.67;1.95;;;;;;;20.23;38.92;101899.00;10358865;28;20180;-79
2022/11/13 12:16:57;;;;;;;3.67;1.92;;;;;;;21.05;34.27;101886.66;10364641;28;20038;-79
2022/11/13 12:22:04;;;;;;;3.10;1.83;;;;;;;20.98;31.30;101877.63;10362294;28;20064;-81
2022/11/13 12:27:33;;;;;;;3.50;1.30;;;;;;;22.37;32.80;101870.31;10369358;28;20034;-81
2022/11/13 12:32:52;;;;;;;2.45;1.67;;;;;;;23.72;28.76;101854.13;10379700;28;20125;-80
2022/11/13 12:37:56;;;;;;;3.92;2.00;;;;;;;24.13;28.05;101838.44;10375484;28;20038;-79
2022/11/13 12:43:23;;;;;;;4.53;1.80;;;;;;;25.07;26.22;101824.59;10372962;28;20044;-79
2022/11/13 12:48:40;;;;;;;4.43;1.65;;;;;;;25.15;26.00;101816.59;10357887;28;20069;-78
2022/11/13 12:53:47;;;;;;;2.78;1.40;;;;;;;25.24;29.59;101810.34;10350894;28;20045;-78
2022/11/13 12:59:01;;;;;;;4.40;1.45;;;;;;;25.59;27.45;101805.06;10360199;28;20152;-77
2022/11/13 13:04:39;;;;;;;2.60;1.40;;;;;;;25.69;28.77;101787.19;10344600;28;20061;-77
2022/11/13 13:10:00;;;;;;;2.67;1.45;;;;;;;25.02;27.44;101786.22;10376470;28;20093;-77
2022/11/13 13:15:30;;;;;;;5.18;1.63;;;;;;;23.94;27.10;101779.44;10359072;28;20057;-78
2022/11/13 13:20:54;;;;;;;3.97;2.00;;;;;;;24.15;27.79;101778.75;10320539;28;20105;-77
2022/11/13 13:26:14;;;;;;;2.65;1.02;;;;;;;24.12;27.16;101768.03;10337829;28;20061;-79
2022/11/13 13:31:28;;;;;;;3.65;2.08;;;;;;;24.00;28.10;101760.81;10361954;28;20129;-79
2022/11/13 13:36:31;;;;;;;2.95;1.42;;;;;;;24.09;28.93;101759.06;10360265;28;20026;-78
2022/11/13 13:41:55;;;;;;;2.70;1.40;;;;;;;24.18;29.13;101748.44;10360480;28;20030;-79
2022/11/13 13:47:04;;;;;;;4.43;1.70;;;;;;;23.78;30.53;101740.16;10349310;28;20053;-79
2022/11/13 13:52:04;;;;;;;4.55;1.63;;;;;;;23.54;29.60;101733.75;10342132;28;20442;-79
2022/11/13 13:57:23;;;;;;;4.22;1.40;;;;;;;23.35;32.04;101722.03;10356816;28;20128;-79
2022/11/13 14:02:23;;;;;;;4.00;1.92;;;;;;;22.18;33.86;101715.41;10357714;28;20046;-78
2022/11/13 14:07:27;;;;;;;2.45;1.25;;;;;;;20.53;36.51;101717.09;10360178;28;20492;-78
2022/11/13 14:12:28;;;;;;;13.98;2.58;;;;;;;17.89;42.70;101716.56;10343114;28;20038;-78
2022/11/13 14:17:30;;;;;;;2.58;1.65;;;;;;;16.59;47.11;101714.81;10338199;28;20054;-78
2022/11/13 14:22:34;;;;;;;6.15;2.33;;;;;;;16.17;47.10;101715.00;10360066;28;20037;-76
2022/11/13 14:27:35;;;;;;;2.72;1.80;;;;;;;15.08;50.79;101716.84;10340834;28;20064;-78
2022/11/13 14:32:38;;;;;;;3.05;1.75;;;;;;;14.64;52.23;101721.91;10338807;28;20451;-78
2022/11/13 14:37:42;;;;;;;3.85;1.25;;;;;;;13.60;58.21;101727.66;10357601;28;20045;-77
2022/11/13 14:42:47;;;;;;;3.97;2.30;;;;;;;12.40;62.50;101733.78;10341715;28;20139;-78
2022/11/13 14:48:16;;;;;;;2.97;1.80;;;;;;;11.45;64.36;101725.88;10343059;28;20033;-77
2022/11/13 14:53:32;;;;;;;2.83;1.23;;;;;;;11.04;66.49;101726.97;10356699;28;20092;-77
2022/11/13 14:58:34;;;;;;;5.90;1.85;;;;;;;10.61;68.21;101714.81;10357240;28;20546;-76
2022/11/13 15:03:34;;;;;;;;;;;;;;;10.31;73.10;101705.94;10356790;28;20080;-80
2022/11/13 15:08:35;;;;;;;6.63;1.80;;;;;;;9.86;73.43;101708.38;10362232;28;20274;-80
2022/11/13 15:13:36;;;;;;;5.93;1.75;;;;;;;9.40;74.92;101709.81;10374774;28;20394;-79
2022/11/13 15:18:36;;;;;;;3.65;2.20;;;;;;;9.11;76.60;101706.16;10381953;28;20040;-80
2022/11/13 15:23:37;;;;;;;4.97;2.03;;;;;;;8.86;74.35;101703.59;10371768;28;20706;-78
2022/11/13 15:28:38;;;;;;;7.10;3.38;;;;;;;8.58;74.90;101691.25;10368337;28;20034;-79
2022/11/13 15:33:39;;;;;;;11.30;5.22;;;;;;;8.47;78.87;101687.91;10380424;28;20810;-79
2022/11/13 15:38:39;;;;;;;2.60;1.63;;;;;;;8.17;79.55;101684.94;10381367;28;20124;-79
2022/11/13 15:43:42;;;;;;;4.82;2.40;;;;;;;7.79;81.18;101684.00;10386309;28;20451;-80
2022/11/13 15:48:45;;;;;;;;;;;;;;;7.46;83.89;101683.38;10379083;28;20057;-80
2022/11/13 15:53:50;;;;;;;3.10;2.30;;;;;;;7.12;86.70;101687.00;10365721;28;19925;-80
2022/11/13 15:58:51;;;;;;;3.20;2.03;;;;;;;6.83;87.46;101688.31;10366654;28;20052;-79
2022/11/13 16:03:51;;;;;;;4.22;2.00;;;;;;;6.50;88.14;101681.44;10363414;28;20120;-83
2022/11/13 16:08:52;;;;;;;3.50;1.75;;;;;;;6.36;90.77;101675.16;10355867;28;20128;-81
2022/11/13 16:13:53;;;;;;;4.70;1.98;;;;;;;6.18;92.27;101667.75;10359757;28;20037;-80
2022/11/13 16:18:53;;;;;;;4.93;2.65;;;;;;;6.00;93.19;101665.53;10359930;28;20032;-80
2022/11/13 16:23:54;;;;;;;13.85;3.13;;;;;;;5.82;92.62;101669.22;10360823;28;20045;-79
2022/11/13 16:28:54;;;;;;;13.63;2.60;;;;;;;5.72;94.35;101670.16;10362541;28;20054;-78
2022/11/13 16:33:55;;;;;;;7.70;2.65;;;;;;;5.65;95.22;101678.25;10346515;28;20041;-78
2022/11/13 16:38:56;;;;;;;4.88;3.20;;;;;;;5.56;97.06;101668.03;10362660;28;20052;-79
2022/11/13 16:43:56;;;;;;;5.85;2.58;;;;;;;5.45;98.07;101664.56;10360769;28;20129;-78
2022/11/13 16:48:57;;;;;;;8.00;1.95;;;;;;;5.23;98.79;101665.41;10362432;28;20042;-80
2022/11/13 16:53:58;;;;;;;4.05;2.30;;;;;;;5.10;99.69;101649.59;10362243;28;20061;-80
2022/11/13 16:59:01;;;;;;;4.03;2.22;;;;;;;5.16;100.00;101644.91;10362209;28;20046;-80
2022/11/13 17:04:02;;;;;;;4.82;2.10;;;;;;;5.15;100.00;101648.28;10362031;28;20046;-80
2022/11/13 17:09:03;;;;;;;5.10;2.35;;;;;;;5.02;100.00;101643.78;10361087;28;20042;-80
2022/11/13 17:14:04;;;;;;;4.55;1.98;;;;;;;4.64;99.21;101638.91;10359916;28;20045;-80
2022/11/13 17:19:05;;;;;;;7.47;3.83;;;;;;;4.19;98.04;101645.50;10361900;28;20385;-79
2022/11/13 17:24:05;;;;;;;7.53;3.00;;;;;;;3.82;100.00;101646.72;10360428;28;20052;-79
2022/11/13 17:29:06;;;;;;;5.82;2.90;;;;;;;3.58;100.00;101634.19;10360615;28;20488;-79
2022/11/13 17:34:07;;;;;;;5.70;3.40;;;;;;;3.36;100.00;101640.06;10359173;28;20120;-79
2022/11/13 17:39:07;;;;;;;4.82;3.00;;;;;;;3.31;100.00;101630.97;10360587;28;20121;-79
2022/11/13 17:44:08;;;;;;;6.00;3.80;;;;;;;3.32;100.00;101625.03;10359942;28;20034;-82
2022/11/13 17:49:08;;;;;;;7.32;2.47;;;;;;;3.42;100.00;101616.44;10358544;28;20100;-80
2022/11/13 17:54:09;;;;;;;5.78;2.72;;;;;;;3.53;100.00;101611.41;10358337;28;20104;-79
2022/11/13 17:59:10;;;;;;;8.07;3.55;;;;;;;3.54;100.00;101612.34;10357376;28;20050;-78
2022/11/13 18:04:10;;;;;;;9.18;3.70;;;;;;;3.40;100.00;101608.50;10359413;28;20060;-79
2022/11/13 18:09:11;;;;;;;5.55;2.85;;;;;;;3.27;100.00;101609.13;10353494;28;20038;-78
2022/11/13 18:14:12;;;;;;;7.82;2.72;;;;;;;3.16;100.00;101599.50;10358229;28;20047;-78
2022/11/13 18:19:12;;;;;;;5.45;3.25;;;;;;;3.04;100.00;101596.69;10355843;28;20049;-78
2022/11/13 18:24:17;;;;;;;6.18;3.83;;;;;;;3.00;100.00;101598.13;10348726;28;20407;-79
2022/11/13 18:29:17;;;;;;;8.55;5.60;;;;;;;3.02;100.00;101585.31;10336012;28;20038;-78
2022/11/13 18:34:18;;;;;;;7.05;4.07;;;;;;;2.96;100.00;101580.50;10355972;28;20083;-78
2022/11/13 18:39:19;;;;;;;7.63;5.25;;;;;;;2.85;100.00;101584.69;10356387;28;20045;-79
2022/11/13 18:44:20;;;;;;;10.07;4.63;;;;;;;2.76;100.00;101582.22;10339704;28;20042;-78
2022/11/13 18:49:22;;;;;;;6.85;3.85;;;;;;;2.80;100.00;101583.38;10356298;28;20133;-78
2022/11/13 18:54:23;;;;;;;7.13;3.72;;;;;;;2.74;100.00;101568.25;10355848;28;20038;-78
2022/11/13 18:59:23;;;;;;;7.32;4.53;;;;;;;2.68;100.00;101562.50;10331066;28;20076;-78
2022/11/13 19:04:24;;;;;;;8.93;5.70;;;;;;;2.63;100.00;101566.34;10314505;28;1183896;-79
2022/11/13 19:09:25;;;;;;;11.35;6.60;;;;;;;2.53;100.00;101574.03;10358327;28;20533;-79
2022/11/13 19:14:25;;;;;;;13.50;6.50;;;;;;;2.47;100.00;101566.63;10359081;28;20030;-79
2022/11/13 19:19:26;;;;;;;14.85;9.18;;;;;;;2.42;100.00;101565.28;10358145;28;20545;-79
2022/11/13 19:24:27;;;;;;;13.60;8.65;;;;;;;2.48;100.00;101564.19;10358343;28;20046;-79
2022/11/13 19:29:27;;;;;;;15.15;10.73;;;;;;;2.42;100.00;101553.31;10358498;28;20446;-79
2022/11/13 19:34:28;;;;;;;11.95;9.02;;;;;;;2.50;100.00;101556.56;10358995;28;20042;-79
2022/11/13 19:39:28;;;;;;;15.13;8.40;;;;;;;2.45;100.00;101547.47;10355891;28;20038;-80
2022/11/13 19:44:29;;;;;;;11.10;7.10;;;;;;;2.33;100.00;101537.84;10356002;28;20038;-79
2022/11/13 19:49:30;;;;;;;12.13;7.65;;;;;;;2.35;100.00;101525.09;10353398;28;20042;-79
2022/11/13 19:54:30;;;;;;;10.68;8.00;;;;;;;2.46;100.00;101532.13;10352412;28;20038;-78
2022/11/13 19:59:33;;;;;;;12.93;6.70;;;;;;;2.49;100.00;101534.06;10355367;28;20440;-79
2022/11/13 20:04:33;;;;;;;13.40;8.52;;;;;;;2.42;100.00;101540.38;10344996;28;20069;-78
2022/11/13 20:09:36;;;;;;;12.00;7.80;;;;;;;2.45;100.00;101532.91;10361755;28;20463;-80
2022/11/13 20:14:36;;;;;;;14.60;10.23;;;;;;;2.37;100.00;101531.31;10362256;28;20489;-80
2022/11/13 20:19:37;;;;;;;20.60;9.82;;;;;;;2.35;100.00;101527.66;10365594;28;20033;-78
2022/11/13 20:24:38;;;;;;;14.18;8.80;;;;;;;2.32;100.00;101525.69;10364789;28;20124;-78
2022/11/13 20:29:38;;;;;;;12.82;9.35;;;;;;;2.07;100.00;101516.47;10345924;28;20123;-78
2022/11/13 20:34:39;;;;;;;12.05;8.82;;;;;;;1.87;100.00;101505.19;10360687;28;20553;-78
2022/11/13 20:39:40;;;;;;;12.95;8.30;;;;;;;1.66;100.00;101499.84;10360771;28;20050;-78
2022/11/13 20:44:41;;;;;;;10.23;6.83;;;;;;;1.45;100.00;101503.91;10343790;28;20057;-77
2022/11/13 20:49:41;;;;;;;13.43;6.85;;;;;;;1.17;100.00;101493.56;10361323;28;22166;-77
2022/11/13 20:54:42;;;;;;;12.43;8.63;;;;;;;1.10;100.00;101486.91;10359806;28;20045;-78
2022/11/13 20:59:42;;;;;;;13.60;10.88;;;;;;;1.09;100.00;101481.59;10361727;28;20034;-77
2022/11/13 21:04:43;;;;;;;18.98;11.48;;;;;;;1.00;100.00;101491.94;10359921;28;20034;-78
2022/11/13 21:09:44;;;;;;;23.60;13.35;;;;;;;0.93;100.00;101484.38;10362782;28;20032;-78
2022/11/13 21:14:44;;;;;;;20.60;14.35;;;;;;;0.88;100.00;101474.53;10359438;28;20049;-77
2022/11/13 21:19:45;;;;;;;17.55;13.98;;;;;;;0.80;100.00;101456.53;10360716;28;20041;-78
2022/11/13 21:24:45;;;;;;;18.00;11.68;;;;;;;0.86;100.00;101454.53;10359769;28;20078;-78
2022/11/13 21:29:46;;;;;;;19.58;12.23;;;;;;;0.80;100.00;101438.47;10360230;28;20038;-78
2022/11/13 21:34:46;;;;;;;14.25;8.95;;;;;;;1.01;100.00;101444.75;10359045;28;20180;-78
2022/11/13 21:39:47;;;;;;;16.98;11.15;;;;;;;0.96;100.00;101431.47;10360653;28;20057;-78
2022/11/13 21:44:47;;;;;;;17.00;11.38;;;;;;;1.01;100.00;101430.22;10360494;28;20046;-79
2022/11/13 21:49:48;;;;;;;16.88;11.30;;;;;;;1.04;100.00;101432.16;10356982;28;20091;-78
2022/11/13 21:54:48;;;;;;;14.80;10.55;;;;;;;1.16;100.00;101427.28;10360384;28;20073;-78
2022/11/13 21:59:49;;;;;;;13.82;9.48;;;;;;;1.19;100.00;101421.50;10362062;28;20121;-78
2022/11/13 22:04:50;;;;;;;23.08;13.55;;;;;;;1.14;100.00;101415.91;10341703;28;20042;-78
2022/11/13 22:09:50;;;;;;;24.92;15.52;;;;;;;1.14;100.00;101418.50;10361847;28;20123;-78
2022/11/13 22:14:51;;;;;;;17.25;12.70;;;;;;;1.01;100.00;101419.00;10359440;28;20046;-79
2022/11/13 22:19:51;;;;;;;13.38;10.95;;;;;;;0.86;100.00;101416.78;10359343;28;20037;-79
2022/11/13 22:24:52;;;;;;;15.52;11.20;;;;;;;0.81;100.00;101415.41;10359863;28;20046;-79
2022/11/13 22:29:52;;;;;;;15.75;11.70;;;;;;;0.85;100.00;101411.47;10358796;28;20095;-79
2022/11/13 22:34:53;;;;;;;18.27;10.32;;;;;;;0.86;100.00;101406.47;10358989;28;20041;-78
2022/11/13 22:39:53;;;;;;;13.75;11.35;;;;;;;0.67;100.00;101408.03;10359364;28;20045;-78
2022/11/13 22:44:54;;;;;;;19.67;11.88;;;;;;;0.56;100.00;101417.31;10356635;28;20107;-78
2022/11/13 22:49:54;;;;;;;16.15;11.13;;;;;;;0.51;100.00;101414.28;10357943;28;20100;-79
2022/11/13 22:54:55;;;;;;;16.90;12.13;;;;;;;0.39;100.00;101407.94;10358084;28;20110;-78
2022/11/13 22:59:55;;;;;;;19.08;11.73;;;;;;;0.24;100.00;101397.09;10358804;28;20084;-79